首页
METAR-TAF:

METAR-TAF

机场 :

奧斯拉瓦河畔納梅什季, 捷克共和国

纬度: 49-09-57N, 经度: 16-07-30E, 海拔: 472米

当前天气观测

该预报发布于45分钟前的00:00 UTC
风速7节,风向西北
温度 8°C
湿度 81%
气压 1032 hPa
能见度10公里或以上
1500米以下无云,无积雨云

METAR: LKNA 270000Z 32007KT CAVOK 08/05 Q1032 RMK BLU

时间: 02:45 (00:45 UTC)

预报

该预报发布于1小时和45分钟前的23:00 UTC
预报有效从27日的 00点(UTC)到 28日的 00点(UTC)
风速10节,风向北转西北
能见度10公里或以上
1500米以下无云,无积雨云
短暂存在
从 27日的 11点(UTC)到 27日的 19点(UTC)
风速14节,风向北转西北
散云层高于4000英尺

TAF: LKNA 262300Z 2700/2800 33010KT CAVOK TEMPO 2711/2719 33014KT SCT040

超过4000个机场的气象观测和天气预报(METAR&TAF报告)。

可查询的气象台以黄色和红色小点在地图上表示。

将鼠标移到小点上方,可查看气象台名称。

然后点击查看天气观测和预报。

如需切换地图:点击带黑十字的绿色按钮放大地图;点击带横线的绿色按钮缩小地图;或者点击绿色箭头查看邻近地区的地图。


METAR-TAF: